Impacts TAF Board
For situational awareness. Not to be used for flight planning purposes.
IDs:

KPDX - Portland Intl Arpt, OR, US

Issued at 0849 UTC 07 Dec 2022
Updated at 0922 UTC 07 Dec 2022
Potential Impact None Slight Moderate High
Time0853Z 07/10Z 07/11Z 07/12Z 07/13Z 07/14Z 07/15Z 07/16Z 07/17Z 07/18Z 07/19Z 07/20Z 07/21Z 07/22Z>>
Type OBS PRVL PRVL PRVL PRVL PRVL PRVL PRVL PRVL PRVL PRVL PRVL PRVL PRVL
VIS 7 5 3 3 3 3 3 3 3 3 3 >6 >6 >6
CIG 45 45 7 7 7 7 7 7 7 7 7 15 15 15
Cover OVC OVC BKN BKN BKN BKN BKN BKN BKN BKN BKN OVC OVC OVC
FltCat VFR MVFR IFR IFR IFR IFR IFR IFR IFR IFR IFR MVFR MVFR MVFR
WX -- BR BR BR BR BR BR BR BR BR BR -- -- --
WDir VRB VRB VRB VRB VRB VRB VRB VRB VRB VRB VRB 130 130 130
WSpd 0 3 0 0 0 0 0 0 0 0 0 4 4 4
WGst -- -- -- -- -- -- -- -- -- -- -- -- -- --
WSHgt -- -- -- -- -- -- -- -- -- -- -- -- -- --
WSDir -- -- -- -- -- -- -- -- -- -- -- -- -- --
WSSpd -- -- -- -- -- -- -- -- -- -- -- -- -- --
Raw TAF
KPDX 070849Z 0709/0806 VRB03KT 5SM BR OVC045
  FM071100 00000KT 3SM BR BKN007 BKN015
  FM072000 13004KT P6SM BKN015 OVC050
  FM080100 13006KT P6SM SCT015 OVC050


Raw METAR
KPDX 070853Z 00000KT 7SM OVC045 04/03 A3021 RMK AO2 SLP230 T00440033 58001
KPDX 070753Z 23003KT 5SM BR OVC046 04/03 A3022 RMK AO2 SLP232 T00440033 400610022
KPDX 070653Z 00000KT 5SM BR OVC048 05/03 A3022 RMK AO2 SLP232 T00500033

METAR Board
Radar Display
Forecast Discussion
For situational awareness. Not to be used for flight planning purposes.